createdAt,value
2022-12-05T00:02:21.359Z,1.10
2022-12-05T00:09:44.747Z,1.17
2022-12-05T00:13:32.244Z,1.12
2022-12-05T00:16:37.367Z,1.15
2022-12-05T00:20:09.121Z,1.16
2022-12-05T00:23:05.110Z,1.13
2022-12-05T00:26:06.928Z,1.13
2022-12-05T00:29:16.681Z,1.16
2022-12-05T00:35:29.453Z,1.20
2022-12-05T00:44:56.953Z,1.21
2022-12-05T00:47:40.286Z,1.23
2022-12-05T00:50:17.005Z,1.25
2022-12-05T00:53:06.162Z,1.21
2022-12-05T00:56:28.154Z,1.19
2022-12-05T00:59:32.410Z,1.15
2022-12-05T01:02:21.839Z,1.19
2022-12-05T01:05:04.531Z,1.19
2022-12-05T01:07:53.065Z,1.18
2022-12-05T01:10:55.355Z,1.21
2022-12-05T01:13:36.715Z,1.21
2022-12-05T01:16:14.443Z,1.22
2022-12-05T01:18:41.494Z,1.20
2022-12-05T01:21:40.781Z,1.11
2022-12-05T01:24:43.289Z,1.21
2022-12-05T01:27:27.436Z,1.20
2022-12-05T01:29:58.843Z,1.22
2022-12-05T01:32:26.578Z,1.17
2022-12-05T01:34:54.792Z,1.21
2022-12-05T01:37:22.579Z,1.21
2022-12-05T01:39:52.474Z,1.22
2022-12-05T01:42:23.238Z,1.26
2022-12-05T01:45:05.921Z,1.25
2022-12-05T01:47:40.218Z,1.23
2022-12-05T01:50:10.134Z,1.34
2022-12-05T01:52:42.343Z,1.36
2022-12-05T01:55:13.490Z,1.37
2022-12-05T01:58:01.351Z,1.28
2022-12-05T02:00:37.340Z,1.30
2022-12-05T02:03:20.955Z,1.38
2022-12-05T02:06:01.999Z,1.38
2022-12-05T02:13:19.642Z,1.21
2022-12-05T02:16:51.682Z,1.30
2022-12-05T02:23:49.560Z,1.32
2022-12-05T02:27:42.781Z,1.23
2022-12-05T02:30:39.150Z,1.22
2022-12-05T02:33:24.206Z,1.21
2022-12-05T02:36:10.564Z,1.35
2022-12-05T02:39:40.879Z,1.33
2022-12-05T02:42:43.607Z,1.39
2022-12-05T02:45:22.911Z,1.29
2022-12-05T02:48:06.595Z,1.33
2022-12-05T02:51:37.778Z,1.36
2022-12-05T02:54:04.201Z,1.30
2022-12-05T02:57:01.585Z,1.21
2022-12-05T02:59:39.749Z,1.13
2022-12-05T03:02:28.882Z,1.16
2022-12-05T03:05:33.290Z,1.24
2022-12-05T03:08:14.814Z,1.27
2022-12-05T03:10:54.603Z,1.26
2022-12-05T03:13:52.730Z,1.30
2022-12-05T03:16:27.421Z,1.29
2022-12-05T03:19:07.451Z,1.29
2022-12-05T03:21:42.421Z,1.19
2022-12-05T03:24:21.554Z,1.20
2022-12-05T03:27:17.072Z,1.30
2022-12-05T03:30:06.551Z,1.26
2022-12-05T03:33:26.599Z,1.28
2022-12-05T03:36:26.848Z,1.23
2022-12-05T03:39:20.434Z,1.23
2022-12-05T03:42:34.234Z,1.23
2022-12-05T03:45:22.440Z,1.22
2022-12-05T03:48:28.880Z,1.27
2022-12-05T03:51:27.887Z,1.28
2022-12-05T03:55:12.461Z,1.27
2022-12-05T03:59:33.685Z,1.38
2022-12-05T04:02:24.636Z,1.32
2022-12-05T04:05:12.652Z,1.33
2022-12-05T04:08:04.379Z,1.31
2022-12-05T04:10:50.216Z,1.36
2022-12-05T04:13:21.963Z,1.38
2022-12-05T04:16:22.231Z,1.40
2022-12-05T04:19:19.665Z,1.37
2022-12-05T04:21:52.880Z,1.37
2022-12-05T04:24:42.812Z,2.40
2022-12-05T04:27:40.831Z,2.30
2022-12-05T04:30:13.482Z,2.02
2022-12-05T04:33:00.349Z,1.88
2022-12-05T04:36:00.987Z,1.70
2022-12-05T04:38:50.283Z,1.67
2022-12-05T04:41:26.552Z,1.61
2022-12-05T04:43:54.559Z,1.56
2022-12-05T04:46:22.495Z,1.48
2022-12-05T04:48:53.007Z,1.45
2022-12-05T04:51:21.206Z,1.43
2022-12-05T04:53:52.430Z,1.48
2022-12-05T04:56:19.657Z,1.48
2022-12-05T04:58:46.411Z,1.43
2022-12-05T05:01:31.102Z,1.47
2022-12-05T05:04:13.413Z,1.47
2022-12-05T05:06:43.935Z,1.40
2022-12-05T05:09:17.040Z,1.33
2022-12-05T05:11:44.354Z,1.27
2022-12-05T05:14:11.838Z,1.28
2022-12-05T05:16:41.432Z,1.33
2022-12-05T05:19:12.401Z,1.33
2022-12-05T05:21:49.747Z,1.37
2022-12-05T05:24:26.058Z,1.32
2022-12-05T05:26:57.254Z,1.37
2022-12-05T05:29:30.452Z,1.34
2022-12-05T05:31:57.622Z,1.34
2022-12-05T05:34:31.993Z,1.35
2022-12-05T05:36:59.233Z,1.30
2022-12-05T05:39:36.948Z,1.39
2022-12-05T05:42:08.270Z,1.44
2022-12-05T05:44:35.506Z,1.40
2022-12-05T05:47:05.792Z,1.35
2022-12-05T05:49:33.496Z,1.26
2022-12-05T05:52:03.474Z,1.21
2022-12-05T05:54:33.455Z,1.24
2022-12-05T05:57:06.917Z,1.23
2022-12-05T05:59:39.755Z,1.25
2022-12-05T06:02:13.540Z,1.26
2022-12-05T06:04:40.532Z,1.21
2022-12-05T06:07:07.531Z,1.27
2022-12-05T06:09:38.979Z,1.27
2022-12-05T06:12:09.323Z,1.26
2022-12-05T06:14:44.084Z,1.15
2022-12-05T06:17:57.319Z,1.25
2022-12-05T06:20:34.696Z,1.24
2022-12-05T06:23:25.614Z,1.35
2022-12-05T06:26:02.176Z,1.20
2022-12-05T06:28:32.415Z,1.27
2022-12-05T06:31:28.035Z,1.38
2022-12-05T06:37:16.188Z,1.30
2022-12-05T06:39:58.837Z,1.37
2022-12-05T06:42:33.663Z,1.28
2022-12-05T06:45:16.886Z,1.36
2022-12-05T06:48:07.800Z,1.43
2022-12-05T06:51:11.363Z,1.28
2022-12-05T06:54:25.690Z,1.25
2022-12-05T06:57:31.995Z,1.27
2022-12-05T07:00:26.172Z,1.30
2022-12-05T07:02:56.517Z,1.33
2022-12-05T07:05:36.837Z,1.22
2022-12-05T07:08:07.416Z,1.30
2022-12-05T07:10:46.534Z,1.31
2022-12-05T07:13:20.775Z,1.24
2022-12-05T07:15:53.731Z,1.30
2022-12-05T07:18:24.353Z,1.28
2022-12-05T07:21:15.162Z,1.32
2022-12-05T07:23:54.690Z,1.33
2022-12-05T07:26:25.847Z,1.35
2022-12-05T07:28:59.070Z,1.38
2022-12-05T07:31:31.854Z,1.29
2022-12-05T07:34:03.960Z,1.32
2022-12-05T07:36:40.367Z,1.40
2022-12-05T07:39:13.392Z,1.30
2022-12-05T07:44:29.908Z,1.25
2022-12-05T07:46:57.858Z,1.39
2022-12-05T07:49:25.078Z,1.41
2022-12-05T07:51:54.465Z,1.35
2022-12-05T08:04:16.189Z,1.40
2022-12-05T08:11:10.778Z,1.40
2022-12-05T08:17:37.960Z,1.54
2022-12-05T08:25:06.446Z,1.58
2022-12-05T08:28:18.423Z,1.46
2022-12-05T08:30:54.258Z,1.40
2022-12-05T08:33:23.672Z,1.58
2022-12-05T08:35:50.350Z,1.61
2022-12-05T08:38:17.032Z,1.66
2022-12-05T08:40:43.715Z,1.67
2022-12-05T08:43:10.392Z,1.80
2022-12-05T08:45:37.077Z,1.84
2022-12-05T08:48:03.840Z,1.81
2022-12-05T08:50:30.884Z,1.91
2022-12-05T08:52:57.650Z,1.85
2022-12-05T08:55:24.358Z,1.88
2022-12-05T08:57:51.037Z,1.88
2022-12-05T09:00:18.196Z,1.95
2022-12-05T09:02:44.940Z,1.91
2022-12-05T09:05:27.099Z,1.91
2022-12-05T09:07:55.323Z,1.83
2022-12-05T09:10:22.385Z,1.88
2022-12-05T09:12:51.160Z,1.92
2022-12-05T09:15:18.259Z,1.88
2022-12-05T09:17:45.816Z,1.87
2022-12-05T09:20:14.043Z,1.80
2022-12-05T09:22:41.523Z,1.88
2022-12-05T09:25:09.180Z,1.97
2022-12-05T09:27:35.972Z,1.92
2022-12-05T09:30:03.402Z,1.89
2022-12-05T09:32:30.292Z,1.88
2022-12-05T09:34:57.208Z,1.69
2022-12-05T09:37:38.654Z,1.75
2022-12-05T09:40:06.817Z,1.70
2022-12-05T09:43:06.143Z,1.70
2022-12-05T09:45:36.264Z,1.67
2022-12-05T09:48:14.641Z,1.67
2022-12-05T09:50:45.396Z,1.70
2022-12-05T09:53:23.753Z,1.69
2022-12-05T09:55:59.531Z,1.75
2022-12-05T09:58:57.383Z,1.81
2022-12-05T10:01:28.281Z,1.86
2022-12-05T10:04:06.593Z,1.91
2022-12-05T10:06:41.336Z,1.94
2022-12-05T10:09:25.864Z,1.86
2022-12-05T10:12:06.529Z,1.98
2022-12-05T10:14:51.631Z,1.96
2022-12-05T10:17:27.384Z,1.95
2022-12-05T10:19:56.789Z,2.00
2022-12-05T10:22:29.066Z,2.06
2022-12-05T10:24:59.894Z,1.99
2022-12-05T10:27:40.211Z,2.05
2022-12-05T10:30:07.964Z,2.08
2022-12-05T10:32:48.299Z,2.12
2022-12-05T10:35:27.009Z,2.12
2022-12-05T10:38:18.756Z,2.21
2022-12-05T10:40:49.703Z,2.27
2022-12-05T10:43:23.717Z,2.20
2022-12-05T10:45:50.412Z,2.12
2022-12-05T10:48:20.476Z,2.12
2022-12-05T10:50:50.392Z,2.16
2022-12-05T10:53:24.651Z,2.19
2022-12-05T10:56:28.114Z,2.20
2022-12-05T10:58:38.315Z,2.24
2022-12-05T11:01:10.812Z,2.27
2022-12-05T11:03:39.834Z,2.32
2022-12-05T11:06:21.531Z,2.26
2022-12-05T11:09:04.274Z,2.14
2022-12-05T11:11:35.630Z,2.17
2022-12-05T11:14:09.819Z,2.18
2022-12-05T11:16:38.632Z,2.19
2022-12-05T11:19:24.359Z,2.25
2022-12-05T11:21:52.159Z,2.26
2022-12-05T11:24:43.339Z,2.27
2022-12-05T11:27:16.008Z,2.20
2022-12-05T11:30:03.963Z,2.28
2022-12-05T11:32:33.480Z,2.31
2022-12-05T11:35:25.135Z,2.38
2022-12-05T11:37:59.210Z,2.40
2022-12-05T11:40:47.846Z,2.30
2022-12-05T11:43:23.600Z,2.36
2022-12-05T11:46:12.799Z,2.41
2022-12-05T11:48:56.412Z,2.43
2022-12-05T11:51:35.180Z,2.47
2022-12-05T11:55:04.404Z,2.47
2022-12-05T11:57:56.242Z,2.48
2022-12-05T12:00:41.648Z,2.46
2022-12-05T12:03:14.344Z,2.58
2022-12-05T12:06:05.375Z,2.64
2022-12-05T12:08:45.682Z,2.62
2022-12-05T12:11:32.806Z,2.61
2022-12-05T12:14:20.617Z,2.67
2022-12-05T12:17:01.982Z,2.73
2022-12-05T12:19:43.435Z,2.76
2022-12-05T12:22:45.638Z,2.70
2022-12-05T12:25:43.421Z,2.66
2022-12-05T12:28:40.621Z,2.74
2022-12-05T12:31:13.281Z,2.77
2022-12-05T12:33:58.197Z,2.69
2022-12-05T12:36:27.339Z,2.72
2022-12-05T12:39:22.027Z,2.70
2022-12-05T12:42:24.240Z,2.68
2022-12-05T12:45:02.944Z,2.66
2022-12-05T12:47:45.509Z,2.66
2022-12-05T12:50:21.044Z,2.70
2022-12-05T12:52:47.696Z,2.67
2022-12-05T12:55:45.257Z,2.72
2022-12-05T12:58:52.003Z,2.68
2022-12-05T13:01:40.285Z,2.73
2022-12-05T13:04:14.900Z,2.79
2022-12-05T13:06:56.558Z,2.76
2022-12-05T13:09:29.396Z,2.81
2022-12-05T13:12:00.959Z,2.90
2022-12-05T13:14:29.178Z,2.94
2022-12-05T13:16:57.298Z,2.86
2022-12-05T13:19:26.936Z,2.88
2022-12-05T13:21:57.203Z,2.86
2022-12-05T13:24:27.380Z,2.86
2022-12-05T13:26:59.035Z,2.78
2022-12-05T13:29:34.516Z,2.77
2022-12-05T13:32:03.633Z,2.81
2022-12-05T13:34:39.745Z,2.86
2022-12-05T13:37:30.635Z,2.90
2022-12-05T13:40:16.110Z,2.79
2022-12-05T13:42:43.254Z,2.87
2022-12-05T13:45:16.232Z,2.91
2022-12-05T13:47:59.298Z,2.97
2022-12-05T13:50:55.366Z,3.00
2022-12-05T13:53:37.664Z,2.96
2022-12-05T13:56:23.860Z,2.98
2022-12-05T13:58:58.115Z,3.00
2022-12-05T14:01:24.942Z,3.03
2022-12-05T14:03:51.709Z,3.07
2022-12-05T14:06:39.425Z,3.05
2022-12-05T14:09:18.918Z,3.06
2022-12-05T14:12:10.778Z,3.05
2022-12-05T14:14:55.491Z,3.09
2022-12-05T14:17:32.924Z,3.11
2022-12-05T14:20:08.851Z,3.13
2022-12-05T14:23:00.003Z,3.10
2022-12-05T14:25:55.950Z,3.10
2022-12-05T14:28:36.983Z,3.05
2022-12-05T14:31:25.367Z,3.07
2022-12-05T14:34:15.475Z,3.09
2022-12-05T14:36:57.713Z,3.11
2022-12-05T14:39:38.432Z,3.12
2022-12-05T14:42:26.961Z,3.11
2022-12-05T14:44:56.536Z,3.15
2022-12-05T14:47:26.194Z,3.16
2022-12-05T14:50:12.666Z,3.14
2022-12-05T14:52:41.230Z,3.15
2022-12-05T14:55:18.638Z,3.15
2022-12-05T14:57:49.237Z,3.15
2022-12-05T15:00:22.985Z,3.19
2022-12-05T15:02:52.105Z,3.16
2022-12-05T15:05:31.909Z,3.12
2022-12-05T15:07:59.996Z,3.16
2022-12-05T15:10:33.596Z,3.18
2022-12-05T15:13:04.112Z,3.20
2022-12-05T15:15:42.965Z,3.19
2022-12-05T15:18:24.359Z,3.12
2022-12-05T15:20:53.098Z,3.08
2022-12-05T15:23:39.970Z,3.11
2022-12-05T15:26:45.431Z,3.13
2022-12-05T15:29:08.903Z,3.15
2022-12-05T15:31:36.992Z,3.06
2022-12-05T15:34:32.897Z,3.08
2022-12-05T15:37:31.010Z,3.08
2022-12-05T15:40:00.539Z,3.12
2022-12-05T15:42:30.926Z,3.10
2022-12-05T15:45:12.086Z,3.15
2022-12-05T15:47:39.825Z,3.15
2022-12-05T15:50:12.195Z,3.16
2022-12-05T15:52:46.315Z,3.12
2022-12-05T15:55:16.201Z,3.16
2022-12-05T15:57:55.259Z,3.13
2022-12-05T16:00:22.367Z,3.08
2022-12-05T16:03:05.205Z,2.99
2022-12-05T16:05:39.966Z,2.97
2022-12-05T16:08:08.454Z,2.93
2022-12-05T16:10:36.229Z,2.88
2022-12-05T16:13:06.376Z,2.90
2022-12-05T16:15:33.843Z,2.85
2022-12-05T16:18:02.687Z,2.87
2022-12-05T16:20:32.560Z,2.84
2022-12-05T16:23:25.572Z,2.83
2022-12-05T16:25:52.389Z,2.87
2022-12-05T16:28:21.173Z,2.82
2022-12-05T16:31:02.004Z,2.78
2022-12-05T16:33:29.385Z,2.71
2022-12-05T16:35:56.234Z,2.75
2022-12-05T16:38:25.984Z,2.78
2022-12-05T16:41:07.210Z,2.80
2022-12-05T16:43:33.893Z,2.79
2022-12-05T16:46:15.652Z,2.78
2022-12-05T16:48:50.514Z,2.76
2022-12-05T16:51:25.538Z,2.77
2022-12-05T16:53:53.835Z,2.78
2022-12-05T16:56:23.527Z,2.79
2022-12-05T16:58:51.399Z,2.77
2022-12-05T17:01:27.620Z,2.81
2022-12-05T17:03:55.573Z,2.91
2022-12-05T17:06:26.632Z,2.92
2022-12-05T17:08:54.542Z,2.89
2022-12-05T17:11:25.155Z,2.88
2022-12-05T17:13:55.304Z,2.89
2022-12-05T17:16:21.996Z,2.85
2022-12-05T17:18:49.251Z,2.86
2022-12-05T17:21:21.206Z,2.88
2022-12-05T17:23:48.533Z,2.88
2022-12-05T17:26:17.503Z,2.90
2022-12-05T17:28:44.383Z,2.92
2022-12-05T17:31:20.105Z,2.86
2022-12-05T17:33:48.351Z,2.87
2022-12-05T17:36:15.788Z,2.92
2022-12-05T17:38:43.436Z,2.89
2022-12-05T17:41:16.074Z,2.95
2022-12-05T17:43:43.239Z,2.99
2022-12-05T17:46:09.924Z,3.08
2022-12-05T17:48:36.703Z,3.10
2022-12-05T17:51:06.602Z,3.03
2022-12-05T17:53:33.335Z,3.02
2022-12-05T17:56:00.017Z,2.98
2022-12-05T17:58:26.753Z,2.94
2022-12-05T18:00:53.587Z,2.95
2022-12-05T18:03:20.447Z,2.95
2022-12-05T18:05:47.703Z,2.97
2022-12-05T18:08:16.630Z,2.91
2022-12-05T18:10:44.880Z,2.87
2022-12-05T18:13:12.063Z,2.88
2022-12-05T18:15:42.930Z,2.89
2022-12-05T18:18:14.466Z,2.93
2022-12-05T18:20:41.136Z,2.95
2022-12-05T18:23:07.806Z,2.93
2022-12-05T18:25:34.541Z,2.93
2022-12-05T18:28:02.268Z,2.92
2022-12-05T18:30:30.402Z,2.91
2022-12-05T18:32:57.102Z,2.87
2022-12-05T18:35:40.857Z,2.89
2022-12-05T18:38:08.935Z,2.89
2022-12-05T18:40:35.678Z,2.91
2022-12-05T18:43:02.543Z,2.89
2022-12-05T18:45:29.280Z,2.92
2022-12-05T18:48:04.515Z,2.95
2022-12-05T18:50:42.855Z,2.98
2022-12-05T18:53:09.551Z,2.95
2022-12-05T18:56:05.151Z,2.97
2022-12-05T18:58:24.061Z,2.95
2022-12-05T19:00:50.733Z,2.98
2022-12-05T19:03:17.463Z,2.98
2022-12-05T19:05:44.132Z,2.99
2022-12-05T19:08:10.937Z,3.00
2022-12-05T19:10:37.802Z,2.98
2022-12-05T19:13:04.472Z,2.99
2022-12-05T19:15:31.346Z,2.98
2022-12-05T19:17:58.101Z,3.00
2022-12-05T19:20:24.767Z,3.00
2022-12-05T19:22:54.128Z,2.99
2022-12-05T19:25:23.097Z,2.96
2022-12-05T19:27:50.079Z,2.96
2022-12-05T19:30:16.885Z,2.97
2022-12-05T19:32:43.605Z,2.97
2022-12-05T19:35:10.741Z,2.95
2022-12-05T19:37:37.445Z,3.05
2022-12-05T19:40:06.656Z,3.09
2022-12-05T19:42:33.355Z,3.08
2022-12-05T19:45:04.620Z,3.04
2022-12-05T19:47:34.764Z,3.05
2022-12-05T19:50:01.632Z,3.05
2022-12-05T19:52:28.504Z,3.07
2022-12-05T19:54:55.195Z,3.05
2022-12-05T19:57:22.732Z,3.03
2022-12-05T19:59:49.516Z,3.02
2022-12-05T20:02:16.431Z,3.05
2022-12-05T20:04:43.355Z,3.05
2022-12-05T20:07:10.031Z,3.08
2022-12-05T20:09:37.678Z,3.06
2022-12-05T20:12:04.754Z,3.06
2022-12-05T20:14:31.562Z,3.03
2022-12-05T20:16:58.328Z,3.04
2022-12-05T20:19:25.129Z,3.04
2022-12-05T20:21:51.941Z,3.06
2022-12-05T20:24:18.675Z,3.07
2022-12-05T20:26:45.435Z,3.07
2022-12-05T20:29:12.268Z,3.06
2022-12-05T20:31:40.773Z,3.07
2022-12-05T20:34:11.515Z,3.06
2022-12-05T20:36:38.297Z,3.03
2022-12-05T20:39:07.585Z,3.05
2022-12-05T20:41:34.443Z,3.05
2022-12-05T20:44:04.990Z,2.98
2022-12-05T20:46:37.626Z,2.93
2022-12-05T20:49:10.060Z,2.94
2022-12-05T20:51:45.077Z,2.92
2022-12-05T20:55:04.147Z,2.88
2022-12-05T20:57:50.745Z,2.89
2022-12-05T21:01:03.355Z,2.87
2022-12-05T21:03:51.620Z,2.88
2022-12-05T21:10:45.912Z,2.91
2022-12-05T21:13:56.615Z,2.90
2022-12-05T21:21:11.583Z,2.86
2022-12-05T21:28:16.177Z,2.77
2022-12-05T21:31:34.585Z,2.79
2022-12-05T21:34:41.661Z,2.81
2022-12-05T21:38:00.407Z,2.84
2022-12-05T21:44:04.960Z,2.86
2022-12-05T21:46:54.818Z,2.84
2022-12-05T21:49:48.044Z,2.83
2022-12-05T21:52:20.950Z,2.88
2022-12-05T21:54:54.906Z,2.89
2022-12-05T21:57:50.903Z,2.84
2022-12-05T22:00:37.385Z,2.90
2022-12-05T22:03:25.849Z,2.81
2022-12-05T22:06:43.668Z,2.83
2022-12-05T22:10:16.440Z,2.76
2022-12-05T22:13:32.647Z,2.75
2022-12-05T22:16:47.028Z,2.73
2022-12-05T22:20:14.508Z,2.69
2022-12-05T22:23:15.307Z,2.65
2022-12-05T22:26:37.443Z,2.62
2022-12-05T22:29:35.856Z,2.63
2022-12-05T22:33:05.368Z,2.63
2022-12-05T22:36:07.854Z,2.62
2022-12-05T22:39:16.095Z,2.51
2022-12-05T22:42:19.040Z,2.46
2022-12-05T22:45:12.981Z,2.44
2022-12-05T22:47:49.184Z,2.52
2022-12-05T22:58:53.138Z,2.43
2022-12-05T23:08:40.029Z,2.40
2022-12-05T23:11:35.176Z,2.47
2022-12-05T23:14:20.053Z,2.41
2022-12-05T23:17:42.026Z,2.34
2022-12-05T23:20:39.037Z,2.27
2022-12-05T23:23:48.725Z,2.13
2022-12-05T23:30:25.204Z,2.16
2022-12-05T23:33:51.439Z,2.27
2022-12-05T23:37:16.202Z,2.30
2022-12-05T23:40:51.792Z,2.34
2022-12-05T23:44:12.291Z,2.22
2022-12-05T23:47:10.259Z,2.30
2022-12-05T23:49:44.711Z,2.31
2022-12-05T23:56:08.040Z,2.29
2022-12-05T23:59:51.406Z,2.32
